MA44 weather

Trade Wind Airport
Oak Bluffs, Massachusetts, United States

Public forecast

Using degrees Fahrenheit for public forecast. Weather courtesy of forecast.io.

Closest aviation weather report (METAR) to Trade Wind Airport

Closest report is Martha's Vineyard Airport, 3.5 nm (6.5 km) SW. Retrieved 2020/08/08 08:53 UTC (11 minutes ago):

KMVY 080853Z AUTO 02004KT 10SM OVC007 21/20 A3013 RMK AO2 CIG 005V009 SLP201 T02110200 50004

Closest aviation forecast (TAF) to Trade Wind Airport

Closest forecast is Cape Cod Coast Guard Air Station, 13.2 nm (24.4 km) N. Retrieved 2020/08/08 06:33 UTC (3 hours ago):

TAF KFMH 080529Z 0806/0906 04004KT P6SM BKN007 FM080800 05003KT 4SM BR BKN003 FM081300 05005KT P6SM SCT080 FM081800 08005KT P6SM SCT060 FM090300 21004KT P6SM SCT015